createdAt,value
2022-09-23T00:01:46.594Z,5.47
2022-09-23T00:07:02.087Z,5.31
2022-09-23T00:13:41.308Z,5.23
2022-09-23T00:19:01.645Z,5.23
2022-09-23T00:24:12.032Z,5.20
2022-09-23T00:29:27.033Z,5.15
2022-09-23T00:34:48.191Z,5.04
2022-09-23T00:40:06.677Z,4.92
2022-09-23T00:45:27.478Z,4.84
2022-09-23T00:50:51.947Z,4.79
2022-09-23T00:56:25.520Z,4.72
2022-09-23T01:02:20.108Z,4.57
2022-09-23T01:07:48.916Z,4.43
2022-09-23T01:13:25.514Z,4.31
2022-09-23T01:19:02.560Z,4.24
2022-09-23T01:24:58.436Z,4.19
2022-09-23T01:30:59.447Z,4.13
2022-09-23T01:36:25.496Z,4.07
2022-09-23T01:41:54.110Z,3.99
2022-09-23T01:47:27.721Z,3.94
2022-09-23T01:52:55.308Z,3.95
2022-09-23T01:58:28.204Z,3.99
2022-09-23T02:04:01.937Z,3.99
2022-09-23T02:09:26.091Z,3.91
2022-09-23T02:14:57.146Z,3.77
2022-09-23T02:20:21.120Z,3.69
2022-09-23T02:25:43.679Z,3.66
2022-09-23T02:30:57.076Z,3.65
2022-09-23T02:36:24.029Z,3.63
2022-09-23T02:42:00.383Z,3.56
2022-09-23T02:47:20.767Z,3.45
2022-09-23T02:52:28.486Z,3.37
2022-09-23T02:58:21.865Z,3.35
2022-09-23T03:04:21.347Z,3.31
2022-09-23T03:09:57.865Z,3.22
2022-09-23T03:15:17.017Z,3.13
2022-09-23T03:20:51.299Z,3.01
2022-09-23T03:26:25.215Z,2.98
2022-09-23T03:31:46.173Z,3.02
2022-09-23T03:37:01.546Z,3.06
2022-09-23T03:42:33.176Z,2.95
2022-09-23T03:48:01.803Z,2.84
2022-09-23T03:53:14.014Z,2.73
2022-09-23T03:58:33.213Z,2.61
2022-09-23T04:03:41.618Z,2.54
2022-09-23T04:09:03.400Z,2.55
2022-09-23T04:14:29.549Z,2.54
2022-09-23T04:19:51.889Z,2.53
2022-09-23T04:25:20.227Z,2.48
2022-09-23T04:30:49.120Z,2.42
2022-09-23T04:36:08.642Z,2.41
2022-09-23T04:41:21.845Z,2.44
2022-09-23T04:46:29.250Z,2.44
2022-09-23T04:51:56.367Z,2.45
2022-09-23T04:57:04.149Z,2.43
2022-09-23T05:02:32.452Z,2.37
2022-09-23T05:07:40.500Z,2.38
2022-09-23T05:12:48.103Z,2.48
2022-09-23T05:18:02.676Z,2.58
2022-09-23T05:23:30.264Z,2.68
2022-09-23T05:28:58.594Z,2.78
2022-09-23T05:34:07.464Z,2.97
2022-09-23T05:39:17.488Z,3.33
2022-09-23T05:44:24.941Z,3.91
2022-09-23T05:49:59.151Z,4.79
2022-09-23T05:55:12.833Z,5.57
2022-09-23T06:00:42.860Z,6.17
2022-09-23T06:06:01.202Z,6.60
2022-09-23T06:11:10.525Z,7.01
2022-09-23T06:16:38.615Z,7.49
2022-09-23T06:22:01.098Z,7.96
2022-09-23T06:27:21.828Z,8.45
2022-09-23T06:32:52.319Z,9.01
2022-09-23T06:38:09.905Z,9.51
2022-09-23T06:43:36.399Z,10.02
2022-09-23T06:49:03.489Z,10.51
2022-09-23T06:54:18.319Z,10.97
2022-09-23T06:59:35.798Z,11.44
2022-09-23T07:04:51.488Z,11.97
2022-09-23T07:10:16.002Z,12.52
2022-09-23T07:15:28.612Z,13.12
2022-09-23T07:20:59.058Z,13.79
2022-09-23T07:26:21.607Z,14.43
2022-09-23T07:31:42.943Z,15.05
2022-09-23T07:37:11.015Z,15.75
2022-09-23T07:42:26.098Z,16.48
2022-09-23T07:47:36.120Z,17.27
2022-09-23T07:52:57.250Z,18.28
2022-09-23T07:58:26.523Z,19.38
2022-09-23T08:04:00.775Z,20.63
2022-09-23T08:09:31.988Z,21.92
2022-09-23T08:15:00.801Z,22.97
2022-09-23T08:20:35.874Z,23.26
2022-09-23T08:25:47.671Z,23.65
2022-09-23T08:30:58.210Z,24.35
2022-09-23T08:36:16.400Z,25.14
2022-09-23T08:41:45.512Z,25.66
2022-09-23T08:46:58.764Z,26.10
2022-09-23T08:52:27.585Z,26.45
2022-09-23T08:58:25.020Z,26.66
2022-09-23T09:03:38.532Z,26.83
2022-09-23T09:09:14.774Z,26.82
2022-09-23T09:14:50.144Z,26.52
2022-09-23T09:20:31.264Z,26.16
2022-09-23T09:25:55.734Z,25.77
2022-09-23T09:31:25.609Z,24.84
2022-09-23T09:36:40.119Z,23.75
2022-09-23T09:42:08.659Z,22.88
2022-09-23T09:47:38.733Z,22.08
2022-09-23T09:53:15.758Z,21.37
2022-09-23T09:59:08.342Z,20.76
2022-09-23T10:04:37.984Z,20.22
2022-09-23T10:09:58.313Z,19.74
2022-09-23T10:15:34.246Z,19.41
2022-09-23T10:20:41.530Z,19.24
2022-09-23T10:26:01.512Z,19.06
2022-09-23T10:31:16.273Z,18.94
2022-09-23T10:36:26.886Z,18.72
2022-09-23T10:42:06.171Z,18.58
2022-09-23T10:47:35.639Z,18.52
2022-09-23T10:53:19.873Z,18.52
2022-09-23T10:58:54.996Z,18.52
2022-09-23T11:04:25.293Z,18.56
2022-09-23T11:10:29.184Z,18.39
2022-09-23T11:16:15.613Z,18.23
2022-09-23T11:22:09.127Z,18.07
2022-09-23T11:27:30.965Z,17.98
2022-09-23T11:33:16.537Z,17.96
2022-09-23T11:38:28.306Z,17.84
2022-09-23T11:43:56.604Z,17.57
2022-09-23T11:49:30.065Z,17.23
2022-09-23T11:55:08.826Z,16.92
2022-09-23T12:00:36.438Z,16.79
2022-09-23T12:06:07.970Z,16.72
2022-09-23T12:11:42.704Z,16.65
2022-09-23T12:17:18.069Z,16.51
2022-09-23T12:22:58.140Z,16.27
2022-09-23T12:28:20.831Z,16.07
2022-09-23T12:33:54.969Z,15.96
2022-09-23T12:39:31.388Z,15.91
2022-09-23T12:44:52.111Z,15.91
2022-09-23T12:50:52.407Z,15.92
2022-09-23T12:56:24.088Z,15.95
2022-09-23T13:01:44.555Z,16.00
2022-09-23T13:07:07.560Z,15.99
2022-09-23T13:12:31.232Z,15.90
2022-09-23T13:17:41.123Z,15.83
2022-09-23T13:23:17.626Z,15.77
2022-09-23T13:28:33.838Z,15.73
2022-09-23T13:33:47.072Z,15.73
2022-09-23T13:38:54.288Z,15.72
2022-09-23T13:44:19.506Z,15.70
2022-09-23T13:49:41.210Z,15.70
2022-09-23T13:54:55.696Z,15.75
2022-09-23T14:00:23.440Z,15.79
2022-09-23T14:05:41.584Z,15.86
2022-09-23T14:10:59.738Z,15.90
2022-09-23T14:16:28.897Z,15.93
2022-09-23T14:21:37.640Z,15.96
2022-09-23T14:26:47.790Z,15.97
2022-09-23T14:31:58.423Z,15.98
2022-09-23T14:37:42.850Z,15.98
2022-09-23T14:43:17.897Z,15.89
2022-09-23T14:48:35.453Z,15.76
2022-09-23T14:53:45.942Z,15.63
2022-09-23T14:58:59.273Z,15.51
2022-09-23T15:04:35.653Z,15.45
2022-09-23T15:09:47.561Z,15.38
2022-09-23T15:14:59.612Z,15.33
2022-09-23T15:20:10.206Z,15.23
2022-09-23T15:25:43.731Z,15.14
2022-09-23T15:31:01.241Z,15.06
2022-09-23T15:36:21.172Z,15.01
2022-09-23T15:41:28.764Z,14.97
2022-09-23T15:46:40.288Z,14.86
2022-09-23T15:51:47.535Z,14.72
2022-09-23T15:56:55.541Z,14.61
2022-09-23T16:02:27.690Z,14.48
2022-09-23T16:08:19.845Z,14.34
2022-09-23T16:14:14.403Z,14.22
2022-09-23T16:19:34.434Z,14.07
2022-09-23T16:24:42.882Z,13.89
2022-09-23T16:30:13.437Z,13.68
2022-09-23T16:35:28.136Z,13.41
2022-09-23T16:40:35.407Z,13.13
2022-09-23T16:45:47.607Z,12.85
2022-09-23T16:51:20.593Z,12.56
2022-09-23T16:56:29.839Z,12.28
2022-09-23T17:01:55.028Z,12.02
2022-09-23T17:07:06.585Z,11.77
2022-09-23T17:12:20.063Z,11.55
2022-09-23T17:17:28.616Z,11.34
2022-09-23T17:22:36.513Z,11.15
2022-09-23T17:27:43.956Z,10.96
2022-09-23T17:32:51.177Z,10.78
2022-09-23T17:37:58.665Z,10.65
2022-09-23T17:43:06.077Z,10.50
2022-09-23T17:48:17.306Z,10.34
2022-09-23T17:53:25.088Z,10.17
2022-09-23T17:58:34.077Z,10.04
2022-09-23T18:03:43.585Z,9.94
2022-09-23T18:09:14.194Z,9.89
2022-09-23T18:14:49.557Z,9.85
2022-09-23T18:19:57.201Z,9.76
2022-09-23T18:25:22.673Z,9.65
2022-09-23T18:30:39.304Z,9.49
2022-09-23T18:35:52.728Z,9.39
2022-09-23T18:41:03.889Z,9.33
2022-09-23T18:46:17.768Z,9.23
2022-09-23T18:51:38.634Z,9.12
2022-09-23T18:56:53.166Z,8.98
2022-09-23T19:02:12.353Z,8.81
2022-09-23T19:07:23.666Z,8.66
2022-09-23T19:12:33.242Z,8.58
2022-09-23T19:17:41.739Z,8.51
2022-09-23T19:22:51.391Z,8.40
2022-09-23T19:28:08.561Z,8.33
2022-09-23T19:33:25.005Z,8.23
2022-09-23T19:38:36.542Z,8.13
2022-09-23T19:43:49.125Z,8.05
2022-09-23T19:49:03.193Z,7.99
2022-09-23T19:54:21.610Z,7.90
2022-09-23T19:59:32.767Z,7.85
2022-09-23T20:04:40.720Z,7.76
2022-09-23T20:09:51.228Z,7.65
2022-09-23T20:15:00.524Z,7.53
2022-09-23T20:20:22.009Z,7.43
2022-09-23T20:26:01.810Z,7.37
2022-09-23T20:31:35.912Z,7.32
2022-09-23T20:37:08.141Z,7.22
2022-09-23T20:42:20.285Z,7.16
2022-09-23T20:47:28.346Z,7.05
2022-09-23T20:52:39.319Z,7.00
2022-09-23T20:57:51.511Z,6.95
2022-09-23T21:03:00.110Z,6.99
2022-09-23T21:08:08.755Z,7.05
2022-09-23T21:13:41.923Z,7.10
2022-09-23T21:18:50.588Z,7.09
2022-09-23T21:24:23.850Z,7.12
2022-09-23T21:29:30.339Z,7.19
2022-09-23T21:34:40.494Z,7.25
2022-09-23T21:40:09.278Z,7.29
2022-09-23T21:45:17.306Z,7.31
2022-09-23T21:50:30.582Z,7.26
2022-09-23T21:55:40.544Z,7.28
2022-09-23T22:01:00.193Z,7.32
2022-09-23T22:06:21.871Z,7.33
2022-09-23T22:11:57.977Z,7.33
2022-09-23T22:17:26.470Z,7.27
2022-09-23T22:22:41.742Z,7.19
2022-09-23T22:28:03.213Z,7.18
2022-09-23T22:33:16.258Z,7.17
2022-09-23T22:38:37.504Z,7.17
2022-09-23T22:43:49.816Z,7.18
2022-09-23T22:48:59.595Z,7.14
2022-09-23T22:54:33.370Z,7.11
2022-09-23T22:59:48.447Z,7.13
2022-09-23T23:05:15.171Z,7.17
2022-09-23T23:10:40.120Z,7.24
2022-09-23T23:15:55.948Z,7.30
2022-09-23T23:21:19.004Z,7.35
2022-09-23T23:26:47.102Z,7.42
2022-09-23T23:31:56.113Z,7.53
2022-09-23T23:37:25.681Z,7.65
2022-09-23T23:42:47.376Z,7.74
2022-09-23T23:47:57.940Z,7.79
2022-09-23T23:53:27.216Z,7.84
2022-09-23T23:58:42.391Z,7.90
